sensor_id;sensor_type;location;lat;lon;timestamp;pressure;altitude;pressure_sealevel;temperature;humidity
6389;BME280;3227;42.654;23.360;2022-12-17T00:00:11;94186.66;;;8.50;100.00
6389;BME280;3227;42.654;23.360;2022-12-17T00:02:58;94174.75;;;8.46;100.00
6389;BME280;3227;42.654;23.360;2022-12-17T00:05:43;94185.84;;;8.46;100.00
6389;BME280;3227;42.654;23.360;2022-12-17T00:08:27;94156.03;;;8.47;100.00
6389;BME280;3227;42.654;23.360;2022-12-17T00:11:12;94139.88;;;8.45;100.00
6389;BME280;3227;42.654;23.360;2022-12-17T00:13:56;94168.81;;;8.66;100.00
6389;BME280;3227;42.654;23.360;2022-12-17T00:16:41;94193.50;;;8.57;100.00
6389;BME280;3227;42.654;23.360;2022-12-17T00:19:26;94180.72;;;8.58;100.00
6389;BME280;3227;42.654;23.360;2022-12-17T00:22:10;94177.34;;;8.70;100.00
6389;BME280;3227;42.654;23.360;2022-12-17T00:24:54;94169.69;;;8.64;100.00
6389;BME280;3227;42.654;23.360;2022-12-17T00:27:38;94188.41;;;8.75;100.00
6389;BME280;3227;42.654;23.360;2022-12-17T00:30:34;94169.66;;;8.49;100.00
6389;BME280;3227;42.654;23.360;2022-12-17T00:33:20;94171.34;;;8.31;100.00
6389;BME280;3227;42.654;23.360;2022-12-17T00:36:05;94175.56;;;8.32;100.00
6389;BME280;3227;42.654;23.360;2022-12-17T00:38:49;94150.00;;;8.23;100.00
6389;BME280;3227;42.654;23.360;2022-12-17T00:41:33;94127.84;;;8.06;100.00
6389;BME280;3227;42.654;23.360;2022-12-17T00:44:17;94153.41;;;8.22;100.00
6389;BME280;3227;42.654;23.360;2022-12-17T00:47:01;94145.81;;;8.31;100.00
6389;BME280;3227;42.654;23.360;2022-12-17T00:49:47;94156.03;;;8.31;100.00
6389;BME280;3227;42.654;23.360;2022-12-17T00:52:31;94166.22;;;8.36;100.00
6389;BME280;3227;42.654;23.360;2022-12-17T00:55:16;94162.00;;;8.44;100.00
6389;BME280;3227;42.654;23.360;2022-12-17T00:58:05;94156.03;;;8.45;100.00
6389;BME280;3227;42.654;23.360;2022-12-17T01:00:48;94165.44;;;8.55;100.00
6389;BME280;3227;42.654;23.360;2022-12-17T01:03:33;94146.69;;;8.53;100.00
6389;BME280;3227;42.654;23.360;2022-12-17T01:06:18;94150.94;;;8.54;100.00
6389;BME280;3227;42.654;23.360;2022-12-17T01:09:02;94154.34;;;8.47;100.00
6389;BME280;3227;42.654;23.360;2022-12-17T01:11:47;94167.09;;;8.49;100.00
6389;BME280;3227;42.654;23.360;2022-12-17T01:14:31;94151.78;;;8.43;100.00
6389;BME280;3227;42.654;23.360;2022-12-17T01:17:25;94154.34;;;8.47;100.00
6389;BME280;3227;42.654;23.360;2022-12-17T01:20:09;94155.19;;;8.51;100.00
6389;BME280;3227;42.654;23.360;2022-12-17T01:23:06;94146.72;;;8.70;100.00
6389;BME280;3227;42.654;23.360;2022-12-17T01:25:53;94128.78;;;8.38;100.00
6389;BME280;3227;42.654;23.360;2022-12-17T01:28:38;94127.06;;;8.32;100.00
6389;BME280;3227;42.654;23.360;2022-12-17T01:31:22;94176.44;;;8.44;100.00
6389;BME280;3227;42.654;23.360;2022-12-17T01:34:07;94171.38;;;8.56;100.00
6389;BME280;3227;42.654;23.360;2022-12-17T01:36:51;94157.75;;;8.57;100.00
6389;BME280;3227;42.654;23.360;2022-12-17T01:39:37;94174.78;;;8.58;100.00
6389;BME280;3227;42.654;23.360;2022-12-17T01:42:18;94161.13;;;8.50;100.00
6389;BME280;3227;42.654;23.360;2022-12-17T01:45:02;94122.75;;;8.10;100.00
6389;BME280;3227;42.654;23.360;2022-12-17T01:47:50;94176.44;;;8.37;100.00
6389;BME280;3227;42.654;23.360;2022-12-17T01:50:39;94153.44;;;8.33;100.00
6389;BME280;3227;42.654;23.360;2022-12-17T01:53:28;94160.28;;;8.37;100.00
6389;BME280;3227;42.654;23.360;2022-12-17T01:56:15;94126.19;;;8.21;100.00
6389;BME280;3227;42.654;23.360;2022-12-17T01:59:01;94168.81;;;8.51;100.00
6389;BME280;3227;42.654;23.360;2022-12-17T02:01:46;94161.97;;;8.35;100.00
6389;BME280;3227;42.654;23.360;2022-12-17T02:04:30;94153.47;;;8.50;100.00
6389;BME280;3227;42.654;23.360;2022-12-17T02:07:31;94143.25;;;8.50;100.00
6389;BME280;3227;42.654;23.360;2022-12-17T02:10:23;94155.19;;;8.45;100.00
6389;BME280;3227;42.654;23.360;2022-12-17T02:13:13;94141.56;;;8.49;100.00
6389;BME280;3227;42.654;23.360;2022-12-17T02:16:04;94153.50;;;8.56;100.00
6389;BME280;3227;42.654;23.360;2022-12-17T02:18:56;94144.13;;;8.67;100.00
6389;BME280;3227;42.654;23.360;2022-12-17T02:21:44;94128.81;;;8.67;100.00
6389;BME280;3227;42.654;23.360;2022-12-17T02:24:38;94145.84;;;8.68;100.00
6389;BME280;3227;42.654;23.360;2022-12-17T02:27:27;94145.00;;;8.67;100.00
6389;BME280;3227;42.654;23.360;2022-12-17T02:30:13;94101.56;;;8.46;100.00
6389;BME280;3227;42.654;23.360;2022-12-17T02:32:58;94146.69;;;8.55;100.00
6389;BME280;3227;42.654;23.360;2022-12-17T02:35:46;94145.00;;;8.63;100.00
6389;BME280;3227;42.654;23.360;2022-12-17T02:38:32;94096.47;;;8.46;100.00
6389;BME280;3227;42.654;23.360;2022-12-17T02:41:21;94129.69;;;8.76;100.00
6389;BME280;3227;42.654;23.360;2022-12-17T02:44:10;94086.25;;;8.58;100.00
6389;BME280;3227;42.654;23.360;2022-12-17T02:46:56;94132.22;;;8.54;100.00
6389;BME280;3227;42.654;23.360;2022-12-17T02:49:42;94118.59;;;8.47;100.00
6389;BME280;3227;42.654;23.360;2022-12-17T02:52:27;94131.38;;;8.39;100.00
6389;BME280;3227;42.654;23.360;2022-12-17T02:55:13;94117.69;;;8.30;100.00
6389;BME280;3227;42.654;23.360;2022-12-17T02:57:57;94099.81;;;8.28;100.00
6389;BME280;3227;42.654;23.360;2022-12-17T03:00:43;94084.53;;;8.34;100.00
6389;BME280;3227;42.654;23.360;2022-12-17T03:03:27;94084.53;;;8.34;100.00
6389;BME280;3227;42.654;23.360;2022-12-17T03:06:11;94075.19;;;8.39;100.00
6389;BME280;3227;42.654;23.360;2022-12-17T03:08:55;94091.34;;;8.38;100.00
6389;BME280;3227;42.654;23.360;2022-12-17T03:11:39;94084.53;;;8.34;100.00
6389;BME280;3227;42.654;23.360;2022-12-17T03:14:23;94087.09;;;8.37;100.00
6389;BME280;3227;42.654;23.360;2022-12-17T03:17:08;94033.47;;;8.22;100.00
6389;BME280;3227;42.654;23.360;2022-12-17T03:19:52;94059.84;;;8.41;100.00
6389;BME280;3227;42.654;23.360;2022-12-17T03:22:36;94082.00;;;8.42;100.00
6389;BME280;3227;42.654;23.360;2022-12-17T03:25:20;94061.59;;;8.47;100.00
6389;BME280;3227;42.654;23.360;2022-12-17T03:28:05;94072.63;;;8.41;100.00
6389;BME280;3227;42.654;23.360;2022-12-17T03:30:50;94054.72;;;8.26;100.00
6389;BME280;3227;42.654;23.360;2022-12-17T03:33:37;94057.25;;;8.17;100.00
6389;BME280;3227;42.654;23.360;2022-12-17T03:36:21;94085.31;;;8.08;100.00
6389;BME280;3227;42.654;23.360;2022-12-17T03:39:06;94079.38;;;8.19;100.00
6389;BME280;3227;42.654;23.360;2022-12-17T03:41:50;94069.16;;;8.16;100.00
6389;BME280;3227;42.654;23.360;2022-12-17T03:44:34;94053.03;;;8.22;100.00
6389;BME280;3227;42.654;23.360;2022-12-17T03:47:18;94045.38;;;8.14;100.00
6389;BME280;3227;42.654;23.360;2022-12-17T03:50:04;94063.25;;;8.29;100.00
6389;BME280;3227;42.654;23.360;2022-12-17T03:52:48;94096.47;;;8.38;100.00
6389;BME280;3227;42.654;23.360;2022-12-17T03:55:32;94061.56;;;8.44;100.00
6389;BME280;3227;42.654;23.360;2022-12-17T03:58:17;94080.28;;;8.52;100.00
6389;BME280;3227;42.654;23.360;2022-12-17T04:01:01;94070.06;;;8.49;100.00
6389;BME280;3227;42.654;23.360;2022-12-17T04:03:46;94078.59;;;8.51;100.00
6389;BME280;3227;42.654;23.360;2022-12-17T04:06:31;94084.53;;;8.59;100.00
6389;BME280;3227;42.654;23.360;2022-12-17T04:09:15;94035.19;;;8.32;100.00
6389;BME280;3227;42.654;23.360;2022-12-17T04:12:00;94086.28;;;8.63;100.00
6389;BME280;3227;42.654;23.360;2022-12-17T04:14:43;94094.78;;;8.77;100.00
6389;BME280;3227;42.654;23.360;2022-12-17T04:17:27;94080.28;;;8.73;100.00
6389;BME280;3227;42.654;23.360;2022-12-17T04:20:12;94083.72;;;8.64;100.00
6389;BME280;3227;42.654;23.360;2022-12-17T04:22:57;94093.06;;;8.73;100.00
6389;BME280;3227;42.654;23.360;2022-12-17T04:25:41;94110.06;;;8.65;100.00
6389;BME280;3227;42.654;23.360;2022-12-17T04:28:25;94075.19;;;8.58;100.00
6389;BME280;3227;42.654;23.360;2022-12-17T04:31:10;94096.47;;;8.55;100.00
6389;BME280;3227;42.654;23.360;2022-12-17T04:33:54;94092.19;;;8.50;100.00
6389;BME280;3227;42.654;23.360;2022-12-17T04:36:39;94105.84;;;8.81;100.00
6389;BME280;3227;42.654;23.360;2022-12-17T04:39:24;94099.03;;;8.87;100.00
6389;BME280;3227;42.654;23.360;2022-12-17T04:42:08;94089.66;;;8.83;100.00
6389;BME280;3227;42.654;23.360;2022-12-17T04:44:52;94110.94;;;8.96;100.00
6389;BME280;3227;42.654;23.360;2022-12-17T04:47:36;94112.63;;;8.92;100.00
6389;BME280;3227;42.654;23.360;2022-12-17T04:50:20;94111.81;;;8.78;100.00
6389;BME280;3227;42.654;23.360;2022-12-17T04:53:05;94129.69;;;8.81;100.00
6389;BME280;3227;42.654;23.360;2022-12-17T04:55:53;94084.53;;;8.51;100.00
6389;BME280;3227;42.654;23.360;2022-12-17T04:58:36;94112.66;;;8.69;100.00
6389;BME280;3227;42.654;23.360;2022-12-17T05:01:20;94122.03;;;8.63;100.00
6389;BME280;3227;42.654;23.360;2022-12-17T05:04:05;94139.91;;;8.70;100.00
6389;BME280;3227;42.654;23.360;2022-12-17T05:07:04;94127.97;;;8.60;100.00
6389;BME280;3227;42.654;23.360;2022-12-17T05:09:48;94160.31;;;8.73;100.00
6389;BME280;3227;42.654;23.360;2022-12-17T05:12:33;94151.81;;;8.73;100.00
6389;BME280;3227;42.654;23.360;2022-12-17T05:15:17;94158.63;;;8.83;100.00
6389;BME280;3227;42.654;23.360;2022-12-17T05:18:06;94182.47;;;8.99;100.00
6389;BME280;3227;42.654;23.360;2022-12-17T05:20:50;94116.91;;;8.69;100.00
6389;BME280;3227;42.654;23.360;2022-12-17T05:23:34;94173.09;;;8.84;100.00
6389;BME280;3227;42.654;23.360;2022-12-17T05:26:22;94151.84;;;8.81;100.00
6389;BME280;3227;42.654;23.360;2022-12-17T05:29:07;94157.78;;;8.72;100.00
6389;BME280;3227;42.654;23.360;2022-12-17T05:31:52;94172.25;;;8.76;100.00
6389;BME280;3227;42.654;23.360;2022-12-17T05:34:36;94161.19;;;8.92;100.00
6389;BME280;3227;42.654;23.360;2022-12-17T05:37:21;94150.09;;;9.07;100.00
6389;BME280;3227;42.654;23.360;2022-12-17T05:40:06;94173.13;;;9.05;100.00
6389;BME280;3227;42.654;23.360;2022-12-17T05:42:55;94187.59;;;8.96;100.00
6389;BME280;3227;42.654;23.360;2022-12-17T05:45:41;94157.78;;;8.92;100.00
6389;BME280;3227;42.654;23.360;2022-12-17T05:48:26;94145.84;;;9.03;100.00
6389;BME280;3227;42.654;23.360;2022-12-17T05:51:10;94133.06;;;9.12;100.00
6389;BME280;3227;42.654;23.360;2022-12-17T05:53:54;94171.41;;;9.01;100.00
6389;BME280;3227;42.654;23.360;2022-12-17T05:56:39;94180.78;;;9.18;100.00
6389;BME280;3227;42.654;23.360;2022-12-17T05:59:23;94093.91;;;8.76;100.00
6389;BME280;3227;42.654;23.360;2022-12-17T06:02:09;94155.25;;;9.05;100.00
6389;BME280;3227;42.654;23.360;2022-12-17T06:04:53;94168.88;;;9.13;100.00
6389;BME280;3227;42.654;23.360;2022-12-17T06:07:37;94166.31;;;9.03;100.00
6389;BME280;3227;42.654;23.360;2022-12-17T06:10:21;94154.38;;;9.09;100.00
6389;BME280;3227;42.654;23.360;2022-12-17T06:13:05;94175.66;;;9.08;100.00
6389;BME280;3227;42.654;23.360;2022-12-17T06:15:50;94185.03;;;9.15;100.00
6389;BME280;3227;42.654;23.360;2022-12-17T06:18:41;94176.50;;;9.38;100.00
6389;BME280;3227;42.654;23.360;2022-12-17T06:21:25;94172.22;;;9.32;100.00
6389;BME280;3227;42.654;23.360;2022-12-17T06:24:09;94192.69;;;9.40;100.00
6389;BME280;3227;42.654;23.360;2022-12-17T06:26:54;94196.94;;;9.54;100.00
6389;BME280;3227;42.654;23.360;2022-12-17T06:29:38;94236.13;;;9.73;100.00
6389;BME280;3227;42.654;23.360;2022-12-17T06:32:23;94218.19;;;9.84;100.00
6389;BME280;3227;42.654;23.360;2022-12-17T06:35:09;94178.97;;;9.82;100.00
6389;BME280;3227;42.654;23.360;2022-12-17T06:37:57;94236.03;;;10.20;100.00
6389;BME280;3227;42.654;23.360;2022-12-17T06:40:42;94230.03;;;10.26;100.00
6389;BME280;3227;42.654;23.360;2022-12-17T06:43:26;94217.16;;;10.44;100.00
6389;BME280;3227;42.654;23.360;2022-12-17T06:46:10;94216.16;;;10.71;100.00
6389;BME280;3227;42.654;23.360;2022-12-17T06:48:54;94240.81;;;10.89;100.00
6389;BME280;3227;42.654;23.360;2022-12-17T06:51:40;94206.69;;;10.84;100.00
6389;BME280;3227;42.654;23.360;2022-12-17T06:54:24;94229.75;;;10.85;100.00
6389;BME280;3227;42.654;23.360;2022-12-17T06:57:08;94203.16;;;10.98;100.00
6389;BME280;3227;42.654;23.360;2022-12-17T06:59:52;94239.06;;;10.95;100.00
6389;BME280;3227;42.654;23.360;2022-12-17T07:02:36;94252.63;;;11.14;98.49
6389;BME280;3227;42.654;23.360;2022-12-17T07:05:21;94287.66;;;11.20;97.74
6389;BME280;3227;42.654;23.360;2022-12-17T07:08:32;94309.94;;;11.10;98.65
6389;BME280;3227;42.654;23.360;2022-12-17T07:11:16;94338.91;;;11.27;99.36
6389;BME280;3227;42.654;23.360;2022-12-17T07:14:00;94315.75;;;11.36;97.84
6389;BME280;3227;42.654;23.360;2022-12-17T07:16:44;94384.97;;;11.44;98.34
6389;BME280;3227;42.654;23.360;2022-12-17T07:19:29;94404.50;;;11.62;99.18
6389;BME280;3227;42.654;23.360;2022-12-17T07:22:13;94395.06;;;11.71;98.23
6389;BME280;3227;42.654;23.360;2022-12-17T07:24:58;94396.81;;;11.69;98.74
6389;BME280;3227;42.654;23.360;2022-12-17T07:27:51;94358.38;;;11.56;100.00
6389;BME280;3227;42.654;23.360;2022-12-17T07:30:36;94355.75;;;11.63;100.00
6389;BME280;3227;42.654;23.360;2022-12-17T07:33:20;94331.78;;;11.67;100.00
6389;BME280;3227;42.654;23.360;2022-12-17T07:36:05;94299.44;;;11.45;100.00
6389;BME280;3227;42.654;23.360;2022-12-17T07:38:49;94321.53;;;11.63;100.00
6389;BME280;3227;42.654;23.360;2022-12-17T07:41:35;94354.91;;;11.63;100.00
6389;BME280;3227;42.654;23.360;2022-12-17T07:44:19;94335.31;;;11.51;100.00
6389;BME280;3227;42.654;23.360;2022-12-17T07:47:13;94345.59;;;11.50;100.00
6389;BME280;3227;42.654;23.360;2022-12-17T07:49:57;94297.69;;;11.49;100.00
6389;BME280;3227;42.654;23.360;2022-12-17T07:52:41;94284.06;;;11.42;100.00
6389;BME280;3227;42.654;23.360;2022-12-17T07:55:26;94310.66;;;11.33;100.00
6389;BME280;3227;42.654;23.360;2022-12-17T07:58:16;94203.69;;;11.40;100.00
6389;BME280;3227;42.654;23.360;2022-12-17T08:01:00;94182.81;;;11.79;100.00
6389;BME280;3227;42.654;23.360;2022-12-17T08:03:45;94178.91;;;12.23;100.00
6389;BME280;3227;42.654;23.360;2022-12-17T08:06:29;94200.47;;;12.79;100.00
6389;BME280;3227;42.654;23.360;2022-12-17T08:09:14;94196.44;;;13.22;100.00
6389;BME280;3227;42.654;23.360;2022-12-17T08:11:58;94200.00;;;13.66;99.53
6389;BME280;3227;42.654;23.360;2022-12-17T08:14:44;94194.50;;;13.86;97.14
6389;BME280;3227;42.654;23.360;2022-12-17T08:17:30;94195.69;;;14.14;91.61
6389;BME280;3227;42.654;23.360;2022-12-17T08:20:14;94248.50;;;14.38;88.60
6389;BME280;3227;42.654;23.360;2022-12-17T08:23:00;94284.28;;;14.55;86.70
6389;BME280;3227;42.654;23.360;2022-12-17T08:25:44;94301.09;;;14.26;87.10
6389;BME280;3227;42.654;23.360;2022-12-17T08:28:48;94312.69;;;14.01;89.27
6389;BME280;3227;42.654;23.360;2022-12-17T08:31:39;94314.50;;;13.96;90.99
6389;BME280;3227;42.654;23.360;2022-12-17T08:34:23;94277.63;;;13.94;91.89
6389;BME280;3227;42.654;23.360;2022-12-17T08:37:07;94280.16;;;13.97;91.88
6389;BME280;3227;42.654;23.360;2022-12-17T08:40:00;94277.91;;;13.76;94.14
6389;BME280;3227;42.654;23.360;2022-12-17T08:42:44;94269.78;;;13.49;96.46
6389;BME280;3227;42.654;23.360;2022-12-17T08:45:28;94274.06;;;13.50;98.23
6389;BME280;3227;42.654;23.360;2022-12-17T08:48:14;94299.56;;;13.65;97.93
6389;BME280;3227;42.654;23.360;2022-12-17T08:50:58;94329.66;;;13.59;97.01
6389;BME280;3227;42.654;23.360;2022-12-17T08:53:42;94366.03;;;13.36;99.01
6389;BME280;3227;42.654;23.360;2022-12-17T08:56:26;94346.38;;;13.32;98.39
6389;BME280;3227;42.654;23.360;2022-12-17T08:59:10;94357.91;;;13.66;96.11
6389;BME280;3227;42.654;23.360;2022-12-17T09:01:54;94353.44;;;13.78;96.29
6389;BME280;3227;42.654;23.360;2022-12-17T09:04:39;94348.38;;;13.73;96.33
6389;BME280;3227;42.654;23.360;2022-12-17T09:07:23;94330.63;;;13.53;96.62
6389;BME280;3227;42.654;23.360;2022-12-17T09:10:08;94355.34;;;13.65;97.01
6389;BME280;3227;42.654;23.360;2022-12-17T09:12:52;94359.66;;;13.64;97.76
6389;BME280;3227;42.654;23.360;2022-12-17T09:15:36;94382.56;;;13.83;97.01
6389;BME280;3227;42.654;23.360;2022-12-17T09:18:20;94368.25;;;13.63;97.50
6389;BME280;3227;42.654;23.360;2022-12-17T09:21:07;94366.50;;;13.65;98.42
6389;BME280;3227;42.654;23.360;2022-12-17T09:23:51;94361.88;;;13.86;98.27
6389;BME280;3227;42.654;23.360;2022-12-17T09:26:36;94392.88;;;13.81;98.08
6389;BME280;3227;42.654;23.360;2022-12-17T09:29:20;94389.72;;;13.61;99.62
6389;BME280;3227;42.654;23.360;2022-12-17T09:32:04;94391.56;;;13.53;100.00
6389;BME280;3227;42.654;23.360;2022-12-17T09:34:48;94410.53;;;13.46;100.00
6389;BME280;3227;42.654;23.360;2022-12-17T09:37:33;94421.78;;;13.37;100.00
6389;BME280;3227;42.654;23.360;2022-12-17T09:40:21;94418.44;;;13.32;100.00
6389;BME280;3227;42.654;23.360;2022-12-17T09:43:17;94409.09;;;13.25;100.00
6389;BME280;3227;42.654;23.360;2022-12-17T09:46:13;94433.34;;;13.01;100.00
6389;BME280;3227;42.654;23.360;2022-12-17T09:49:00;94424.16;;;12.77;100.00
6389;BME280;3227;42.654;23.360;2022-12-17T09:51:45;94419.06;;;12.74;100.00
6389;BME280;3227;42.654;23.360;2022-12-17T09:54:33;94401.06;;;12.73;100.00
6389;BME280;3227;42.654;23.360;2022-12-17T09:57:21;94412.22;;;12.73;100.00
6389;BME280;3227;42.654;23.360;2022-12-17T10:00:13;94355.91;;;12.49;100.00
6389;BME280;3227;42.654;23.360;2022-12-17T10:02:58;94411.19;;;12.88;100.00
6389;BME280;3227;42.654;23.360;2022-12-17T10:05:43;94407.63;;;13.01;98.88
6389;BME280;3227;42.654;23.360;2022-12-17T10:08:29;94373.25;;;13.08;98.90
6389;BME280;3227;42.654;23.360;2022-12-17T10:11:19;94385.19;;;13.17;100.00
6389;BME280;3227;42.654;23.360;2022-12-17T10:14:16;94406.53;;;13.25;100.00
6389;BME280;3227;42.654;23.360;2022-12-17T10:17:01;94427.84;;;13.33;100.00
6389;BME280;3227;42.654;23.360;2022-12-17T10:19:48;94441.50;;;13.40;100.00
6389;BME280;3227;42.654;23.360;2022-12-17T10:22:45;94456.16;;;13.33;100.00
6389;BME280;3227;42.654;23.360;2022-12-17T10:25:30;94456.41;;;13.09;100.00
6389;BME280;3227;42.654;23.360;2022-12-17T10:28:19;94461.69;;;12.95;100.00
6389;BME280;3227;42.654;23.360;2022-12-17T10:31:07;94438.53;;;12.93;100.00
6389;BME280;3227;42.654;23.360;2022-12-17T10:33:54;94454.19;;;12.75;100.00
6389;BME280;3227;42.654;23.360;2022-12-17T10:36:43;94440.50;;;12.69;100.00
6389;BME280;3227;42.654;23.360;2022-12-17T10:39:28;94433.72;;;12.63;100.00
6389;BME280;3227;42.654;23.360;2022-12-17T10:42:20;94449.28;;;12.48;100.00
6389;BME280;3227;42.654;23.360;2022-12-17T10:45:24;94405.84;;;12.22;100.00
6389;BME280;3227;42.654;23.360;2022-12-17T10:48:20;94418.59;;;12.30;100.00
6389;BME280;3227;42.654;23.360;2022-12-17T10:51:17;94403.13;;;12.39;100.00
6389;BME280;3227;42.654;23.360;2022-12-17T10:54:08;94341.75;;;12.08;100.00
6389;BME280;3227;42.654;23.360;2022-12-17T10:56:56;94363.72;;;12.37;100.00
6389;BME280;3227;42.654;23.360;2022-12-17T10:59:43;94380.84;;;12.36;100.00
6389;BME280;3227;42.654;23.360;2022-12-17T11:02:30;94367.19;;;12.34;100.00
6389;BME280;3227;42.654;23.360;2022-12-17T11:05:21;94372.91;;;12.62;100.00
6389;BME280;3227;42.654;23.360;2022-12-17T11:08:07;94365.84;;;12.79;100.00
6389;BME280;3227;42.654;23.360;2022-12-17T11:10:52;94376.69;;;13.06;100.00
6389;BME280;3227;42.654;23.360;2022-12-17T11:13:40;94390.13;;;13.33;100.00
6389;BME280;3227;42.654;23.360;2022-12-17T11:16:33;94384.63;;;13.58;98.99
6389;BME280;3227;42.654;23.360;2022-12-17T11:19:35;94365.03;;;13.49;100.00
6389;BME280;3227;42.654;23.360;2022-12-17T11:22:29;94381.44;;;13.41;100.00
6389;BME280;3227;42.654;23.360;2022-12-17T11:25:35;94378.78;;;13.47;100.00
6389;BME280;3227;42.654;23.360;2022-12-17T11:28:24;94393.22;;;13.57;99.82
6389;BME280;3227;42.654;23.360;2022-12-17T11:31:29;94398.25;;;13.64;98.62
6389;BME280;3227;42.654;23.360;2022-12-17T11:34:23;94392.25;;;13.65;98.90
6389;BME280;3227;42.654;23.360;2022-12-17T11:37:19;94408.44;;;13.75;94.87
6389;BME280;3227;42.654;23.360;2022-12-17T11:40:19;94415.19;;;13.82;95.53
6389;BME280;3227;42.654;23.360;2022-12-17T11:43:12;94420.47;;;13.73;95.14
6389;BME280;3227;42.654;23.360;2022-12-17T11:46:08;94432.66;;;13.59;98.07
6389;BME280;3227;42.654;23.360;2022-12-17T11:49:03;94445.91;;;13.28;100.00
6389;BME280;3227;42.654;23.360;2022-12-17T11:51:56;94450.41;;;13.08;100.00
6389;BME280;3227;42.654;23.360;2022-12-17T11:54:49;94453.97;;;12.96;100.00
6389;BME280;3227;42.654;23.360;2022-12-17T11:57:40;94447.22;;;12.85;100.00
6389;BME280;3227;42.654;23.360;2022-12-17T12:00:33;94423.34;;;12.75;100.00
6389;BME280;3227;42.654;23.360;2022-12-17T12:03:26;94396.03;;;12.64;100.00
6389;BME280;3227;42.654;23.360;2022-12-17T12:06:19;94410.31;;;12.90;100.00
6389;BME280;3227;42.654;23.360;2022-12-17T12:09:13;94423.84;;;13.05;100.00
6389;BME280;3227;42.654;23.360;2022-12-17T12:12:05;94421.19;;;13.12;100.00
6389;BME280;3227;42.654;23.360;2022-12-17T12:14:57;94440.78;;;13.27;100.00
6389;BME280;3227;42.654;23.360;2022-12-17T12:17:48;94450.28;;;13.22;100.00
6389;BME280;3227;42.654;23.360;2022-12-17T12:20:51;94462.09;;;13.40;100.00
6389;BME280;3227;42.654;23.360;2022-12-17T12:23:47;94453.38;;;13.50;100.00
6389;BME280;3227;42.654;23.360;2022-12-17T12:26:42;94447.28;;;13.57;100.00
6389;BME280;3227;42.654;23.360;2022-12-17T12:29:37;94452.34;;;13.64;100.00
6389;BME280;3227;42.654;23.360;2022-12-17T12:32:30;94465.97;;;13.73;100.00
6389;BME280;3227;42.654;23.360;2022-12-17T12:35:21;94457.28;;;13.78;100.00
6389;BME280;3227;42.654;23.360;2022-12-17T12:38:13;94440.84;;;13.88;100.00
6389;BME280;3227;42.654;23.360;2022-12-17T12:41:03;94433.88;;;13.95;100.00
6389;BME280;3227;42.654;23.360;2022-12-17T12:43:53;94416.78;;;13.91;99.03
6389;BME280;3227;42.654;23.360;2022-12-17T12:46:45;94430.47;;;13.93;99.07
6389;BME280;3227;42.654;23.360;2022-12-17T12:49:33;94435.47;;;14.03;100.00
6389;BME280;3227;42.654;23.360;2022-12-17T12:52:21;94419.25;;;13.97;98.46
6389;BME280;3227;42.654;23.360;2022-12-17T12:55:07;94437.41;;;13.88;100.00
6389;BME280;3227;42.654;23.360;2022-12-17T12:58:00;94445.28;;;13.76;100.00
6389;BME280;3227;42.654;23.360;2022-12-17T13:00:53;94420.59;;;13.64;100.00
6389;BME280;3227;42.654;23.360;2022-12-17T13:03:48;94428.09;;;13.78;100.00
6389;BME280;3227;42.654;23.360;2022-12-17T13:06:41;94442.25;;;13.48;100.00
6389;BME280;3227;42.654;23.360;2022-12-17T13:09:30;94401.56;;;13.07;100.00
6389;BME280;3227;42.654;23.360;2022-12-17T13:12:16;94434.84;;;13.20;100.00
6389;BME280;3227;42.654;23.360;2022-12-17T13:14:46;94440.25;;;12.96;100.00
6389;BME280;3227;42.654;23.360;2022-12-17T13:17:28;94428.31;;;12.90;100.00
6389;BME280;3227;42.654;23.360;2022-12-17T13:20:22;94427.50;;;12.85;100.00
6389;BME280;3227;42.654;23.360;2022-12-17T13:22:51;94434.47;;;12.74;100.00
6389;BME280;3227;42.654;23.360;2022-12-17T13:25:20;94437.00;;;12.79;100.00
6389;BME280;3227;42.654;23.360;2022-12-17T13:27:48;94451.63;;;12.72;100.00
6389;BME280;3227;42.654;23.360;2022-12-17T13:30:22;94466.13;;;12.78;100.00
6389;BME280;3227;42.654;23.360;2022-12-17T13:32:58;94452.44;;;12.77;100.00
6389;BME280;3227;42.654;23.360;2022-12-17T13:35:36;94463.47;;;12.90;100.00
6389;BME280;3227;42.654;23.360;2022-12-17T13:38:12;94465.09;;;12.99;100.00
6389;BME280;3227;42.654;23.360;2022-12-17T13:40:44;94459.84;;;13.08;100.00
6389;BME280;3227;42.654;23.360;2022-12-17T13:43:15;94464.03;;;13.18;100.00
6389;BME280;3227;42.654;23.360;2022-12-17T13:45:43;94464.84;;;13.24;100.00
6389;BME280;3227;42.654;23.360;2022-12-17T13:48:19;94428.94;;;13.15;100.00
6389;BME280;3227;42.654;23.360;2022-12-17T13:50:54;94454.44;;;13.33;100.00
6389;BME280;3227;42.654;23.360;2022-12-17T13:53:24;94465.63;;;13.31;100.00
6389;BME280;3227;42.654;23.360;2022-12-17T13:55:53;94477.59;;;13.33;100.00
6389;BME280;3227;42.654;23.360;2022-12-17T13:58:22;94467.34;;;13.30;100.00
6389;BME280;3227;42.654;23.360;2022-12-17T14:00:49;94470.88;;;13.19;100.00
6389;BME280;3227;42.654;23.360;2022-12-17T14:03:20;94477.75;;;13.18;100.00
6389;BME280;3227;42.654;23.360;2022-12-17T14:05:47;94478.59;;;13.19;100.00
6389;BME280;3227;42.654;23.360;2022-12-17T14:08:18;94481.13;;;13.25;100.00
6389;BME280;3227;42.654;23.360;2022-12-17T14:10:50;94476.00;;;13.23;100.00
6389;BME280;3227;42.654;23.360;2022-12-17T14:13:17;94483.75;;;13.19;100.00
6389;BME280;3227;42.654;23.360;2022-12-17T14:15:44;94483.97;;;12.93;100.00
6389;BME280;3227;42.654;23.360;2022-12-17T14:18:15;94498.59;;;12.91;100.00
6389;BME280;3227;42.654;23.360;2022-12-17T14:20:43;94496.03;;;12.88;100.00
6389;BME280;3227;42.654;23.360;2022-12-17T14:23:17;94499.47;;;12.91;100.00
6389;BME280;3227;42.654;23.360;2022-12-17T14:25:48;94464.47;;;12.75;100.00
6389;BME280;3227;42.654;23.360;2022-12-17T14:28:21;94500.19;;;13.03;100.00
6389;BME280;3227;42.654;23.360;2022-12-17T14:30:48;94503.59;;;13.03;100.00
6389;BME280;3227;42.654;23.360;2022-12-17T14:33:26;94469.53;;;12.84;100.00
6389;BME280;3227;42.654;23.360;2022-12-17T14:35:54;94494.19;;;13.04;100.00
6389;BME280;3227;42.654;23.360;2022-12-17T14:38:21;94503.59;;;13.08;100.00
6389;BME280;3227;42.654;23.360;2022-12-17T14:40:50;94489.84;;;13.09;100.00
6389;BME280;3227;42.654;23.360;2022-12-17T14:43:23;94505.28;;;13.09;100.00